Дата Пункты Температура Давл., мм. Влажн., % Ветер Погодные явления
Воздуха Воды Направл. Скорость
22.04.18 03:00 Одесса 23.0 9.0 755 28 С 2 15 ЧАСОВ
22.04.18 12:00 Одесса 21.0 9.0 756 27 С-З 4 12 ЧАСОВ
22.04.18 09:00 Одесса 18.0 9.0 755 41 С 4 09 ЧАСОВ
22.04.18 06:00 Одесса 16.0 8.0 754 50 С-З 3 06 ЧАСОВ
22.04.18 03:00 Одесса 14.0 8.0 754 62 З 3 03 ЧАСА
21.04.18 09:00 Одесса 16.0 7.0 755 53 Ю-З 3 21 ЧАС
21.04.18 06:00 Одесса 18.0 7.0 757 42 Ю-З 3 18 ЧАСОВ
21.04.18 03:00 Одесса 16.0 7.0 759 62 Ю 3 15 ЧАСОВ
21.04.18 12:00 Одесса 16.0 9.0 761 51 Ю 3 12 ЧАСОВ
21.04.18 09:00 Одесса 16.0 9.0 761 43 С 0 09 ЧАСОВ
21.04.18 06:00 Одесса 11.0 9.0 761 55 С-З 2 06 ЧАСОВ
21.04.18 03:00 Одесса 11.0 9.0 761 54 С-З 2 03 ЧАСА
20.04.18 09:00 Одесса 16.0 8.0 760 37 С 3 21 ЧАС
20.04.18 06:00 Одесса 17.0 8.0 759 38 С 4 18 ЧАСОВ
20.04.18 03:00 Одесса 18.0 8.0 759 41 С 4 15 ЧАСОВ
20.04.18 12:00 Одесса 17.0 11.0 759 53 С 4 12 ЧАСОВ
20.04.18 09:00 Одесса 13.0 11.0 758 62 С 3 09 ЧАСОВ
20.04.18 06:00 Одесса 11.0 13.0 757 73 С 3 06 ЧАСОВ
20.04.18 03:00 Одесса 12.0 13.0 757 60 С-З 4 03 ЧАСА
19.04.18 09:00 Одесса 18.0 13.0 756 38 С-З 3 21 ЧАС
Количество строк
1 2 3 4 5 6 7 8 9 10
Page 2 of 354